KYKM/YKM METAR and TAF weather

Enter ICAO airport designator
Station Type Date Time Source
KYKM METAR 2019/06/16 20:53 UTC NOAA

KYKM 162053Z VRB03KT 10SM FEW100 31/08 A2986 RMK AO2 SLP101 T03060078 58014 $


Station Type Date Time Source
KYKM Decoded METAR 2019/06/16 20:53 UTC NOAA

YAKIMA AIR TERMINAL, WA, United States (KYKM) 46-34N 120-32W 324M
Jun 16, 2019 - 04:53 PM EDT / 2019.06.16 2053 UTC
Wind: Variable at 3 MPH (3 KT):0
Visibility: 10 mile(s):0
Sky conditions: mostly clear
Temperature: 87.1 F (30.6 C)
Dew Point: 46.0 F (7.8 C)
Relative Humidity: 24%
Pressure (altimeter): 29.86 in. Hg (1011 hPa)
Pressure tendency: 0.04 inches (1.4 hPa) lower than three hours ago
ob: KYKM 162053Z VRB03KT 10SM FEW100 31/08 A2986 RMK AO2 SLP101 T03060078 58014
cycle: 21

Station Type Date Time Source
KYKM TAF 2019/06/16 18:22 UTC NOAA

TAF KYKM 161720Z 1618/1718 36006KT P6SM FEW250
FM162000 VRB05KT P6SM FEW250
FM170200 33011G16KT P6SM FEW250
FM170900 32007KT P6SM SKC

Example: see airport list